Terminal Aerodrome Forecast
Issued by NWS

Home | Current Version | Previous Version | Graphics & Text | Print | Product List | Glossary On
Versions: 1 2 3 4 5 6 7 8 9 10 11 12 13 14 15 16 17 18 19 20 21 22 23 24
580
FTUS43 KLOT 251738
TAFORD
TAF
KORD 251738Z 2518/2624 03014G22KT P6SM FEW250
     FM252300 03012KT P6SM SKC
     FM260400 34005KT P6SM FEW250
     FM261100 25006KT P6SM SCT250=

USA.gov is the U.S. government's official web portal to all federal, state and local government web resources and services.